Nearby METAR Reports

 

KNTU - NAS Oceana, Virginia Beach, Virginia, USA
Distance from station: N 3.2mi, 5.1km
Updated: Mon, 08-Aug-2022 3:56pm EDT
Mostly cloudy
Mostly cloudy
 Wind from SW
Wind: SW 12 mph , 19 km/h
Temperature: 91°F , 33°C
Heat Index: 98°F , 37°C
Dew Point: 72°F , 22°C
Humidity: 52%
Barometer: 30.03 inHg , 1016.9 hPa
Clouds: Mostly cloudy
Visibility: 10 miles , 16 km
Cloud details: Mostly cloudy 4700 ft
2022/08/08 19:56 KNTU 081956Z 23010KT 10SM BKN047 33/22 A3003 RMK AO2 SLP173 T03330222
KNFE - Fentress NALF, Virginia Beach Virginia, USA
Distance from station: SW 7.6mi, 12.2km
Updated: Mon, 08-Aug-2022 2:56pm EDT
NOT Current
Few Clouds
Few Clouds
 Wind from varies
Wind: varies 3 mph , 6 km/h, Gust: 22 mph , 35 km/h
Temperature: 91°F , 33°C
Heat Index: 98°F , 37°C
Dew Point: 72°F , 22°C
Humidity: 52%
Barometer: 30.07 inHg , 1018.3 hPa
Clouds: Few Clouds
Visibility: 10 miles , 16 km
Cloud details: Few Clouds 4400 ft
2022/08/08 18:56 KNFE 081856Z AUTO VRB03G19KT 10SM FEW044 33/22 A3007 RMK AO2 SLP185 T03330222
 
KORF - Norfolk International, Norfolk, Virginia, USA
Distance from station: NW 12.2mi, 19.6km
Updated: Mon, 08-Aug-2022 3:51pm EDT
Mostly cloudy
Mostly cloudy
 Wind from S
Wind: S 13 mph , 20 km/h
Temperature: 90°F , 32°C
Heat Index: 99°F , 37°C
Dew Point: 73°F , 23°C
Humidity: 59%
Barometer: 30.04 inHg , 1017.3 hPa
Clouds: Mostly cloudy
Visibility: 10 miles , 16 km
Cloud details: Few Clouds 4600 ft
Mostly cloudy 6500 ft
2022/08/08 19:51 KORF 081951Z 19011KT 10SM FEW046 BKN065 32/23 A3004 RMK AO2 SLP170 T03220228
KCPK - Cheasapeak Municipal, Cheasapeak, Virginia, USA
Distance from station: SW 17.2mi, 27.7km
Updated: Mon, 08-Aug-2022 3:55pm EDT

 Wind from S
Wind: S 10 mph , 17 km/h
Barometer: 30.05 inHg , 1017.6 hPa
2022/08/08 19:55 KCPK 081955Z AUTO 19009KT A3005 RMK AO2 PWINO
 
KNGU - NAS Norfolk, Norfolk, Virginia, USA
Distance from station: NW 17.7mi, 28.5km
Updated: Mon, 08-Aug-2022 3:59pm EDT
Mostly cloudy
Mostly cloudy
 Wind from SSW
Wind: SSW 9 mph , 15 km/h
Temperature: 91°F , 33°C
Heat Index: 98°F , 37°C
Dew Point: 72°F , 22°C
Humidity: 52%
Barometer: 30.05 inHg , 1017.6 hPa
Clouds: Mostly cloudy
Visibility: 10 miles , 16 km
Cloud details: Mostly cloudy 4000 ft
2022/08/08 19:59 KNGU 081959Z 21008KT 10SM BKN040 33/22 A3005 RMK AO2 SLP175 T03280217 $